Matheson, Canada
Current Conditions -  °F | °C
As of 4:00 PM on Saturday 25 Oct 2014 (Local Time) from CYTS Reporting Station
Light Rain Light Rain  
Wind Chill: 37°   Ceiling: 2500
Heat Index: 45°   Visibility: 15mi
Dew Point: 41°   Wind: 16mph
Humidity: 87%   Direction: 270°W
Pressure: 29.4"   Gusts: 29mph
Location:  48.53°N, 80.47°W
Report Text: CYTS 252000Z 27014G25KT 15SM -RA FEW014 BKN025 OVC040 07/05 A2940 RMK SC2SC5SC1 SLP964
Loading
Personal Weather Stations






























Interactive Weather Map
Tropical Storm Tracking
New forecast layout! Learn more

10-Day Weather Forecast

Advertisements
Track Severe Weather on mobile